createdAt,value
2019-02-12T00:01:47.056Z,7.03
2019-02-12T00:05:51.113Z,5.73
2019-02-12T00:09:55.081Z,6.33
2019-02-12T00:13:59.145Z,6.10
2019-02-12T00:18:03.196Z,7.50
2019-02-12T00:22:07.130Z,4.57
2019-02-12T00:26:11.016Z,6.27
2019-02-12T00:30:15.290Z,6.47
2019-02-12T00:34:19.200Z,7.13
2019-02-12T00:38:23.206Z,7.17
2019-02-12T00:42:27.112Z,3.03
2019-02-12T00:46:31.136Z,6.67
2019-02-12T00:50:35.004Z,8.17
2019-02-12T00:54:38.898Z,6.27
2019-02-12T00:58:42.895Z,6.53
2019-02-12T01:02:46.822Z,8.67
2019-02-12T01:06:50.787Z,9.57
2019-02-12T01:10:55.870Z,12.10
2019-02-12T01:14:59.893Z,8.77
2019-02-12T01:19:03.912Z,8.73
2019-02-12T01:23:07.942Z,5.53
2019-02-12T01:27:12.030Z,7.33
2019-02-12T01:31:16.026Z,6.57
2019-02-12T01:35:19.963Z,8.77
2019-02-12T01:39:24.070Z,7.40
2019-02-12T01:43:27.968Z,4.90
2019-02-12T01:47:31.897Z,7.97
2019-02-12T01:51:35.775Z,5.23
2019-02-12T01:55:39.809Z,4.23
2019-02-12T01:59:43.694Z,6.47
2019-02-12T02:03:47.751Z,7.13
2019-02-12T02:07:51.847Z,4.70
2019-02-12T02:11:55.796Z,6.03
2019-02-12T02:15:59.696Z,8.00
2019-02-12T02:20:04.282Z,5.87
2019-02-12T02:24:08.460Z,6.23
2019-02-12T02:28:12.377Z,4.67
2019-02-12T02:32:16.513Z,3.63
2019-02-12T02:36:20.527Z,7.83
2019-02-12T02:40:24.511Z,4.57
2019-02-12T02:44:28.558Z,3.10
2019-02-12T02:48:32.456Z,5.97
2019-02-12T02:52:36.469Z,5.77
2019-02-12T02:56:40.387Z,5.13
2019-02-12T03:00:44.335Z,4.80
2019-02-12T03:04:48.690Z,4.67
2019-02-12T03:08:52.752Z,6.50
2019-02-12T03:12:56.797Z,8.83
2019-02-12T03:17:00.714Z,6.17
2019-02-12T03:21:04.614Z,6.97
2019-02-12T03:25:08.797Z,5.00
2019-02-12T03:29:12.717Z,6.83
2019-02-12T03:33:16.801Z,5.57
2019-02-12T03:37:20.743Z,5.77
2019-02-12T03:41:24.891Z,3.27
2019-02-12T03:45:28.787Z,8.30
2019-02-12T03:49:32.805Z,5.10
2019-02-12T03:53:36.811Z,4.73
2019-02-12T03:57:40.883Z,7.50
2019-02-12T04:01:44.833Z,6.40
2019-02-12T04:05:49.008Z,5.80
2019-02-12T04:09:52.924Z,7.23
2019-02-12T04:13:57.046Z,10.10
2019-02-12T04:18:01.047Z,5.80
2019-02-12T04:22:05.039Z,7.20
2019-02-12T04:26:09.030Z,10.13
2019-02-12T04:30:13.173Z,5.53
2019-02-12T04:34:17.053Z,3.57
2019-02-12T04:38:20.977Z,4.60
2019-02-12T04:42:24.906Z,7.70
2019-02-12T04:46:28.982Z,5.17
2019-02-12T04:50:33.064Z,3.63
2019-02-12T04:54:37.161Z,4.40
2019-02-12T04:58:41.186Z,3.93
2019-02-12T05:02:45.334Z,4.23
2019-02-12T05:06:49.528Z,4.93
2019-02-12T05:10:56.702Z,5.57
2019-02-12T05:15:00.590Z,9.47
2019-02-12T05:19:04.555Z,12.20
2019-02-12T05:23:08.655Z,11.43
2019-02-12T05:27:12.718Z,11.20
2019-02-12T05:31:16.619Z,5.63
2019-02-12T05:35:20.624Z,7.63
2019-02-12T05:39:24.559Z,6.93
2019-02-12T05:43:28.532Z,6.40
2019-02-12T05:47:32.530Z,4.67
2019-02-12T05:51:36.537Z,12.87
2019-02-12T05:55:40.452Z,14.07
2019-02-12T05:59:47.018Z,7.77
2019-02-12T06:03:50.197Z,7.00
2019-02-12T06:07:54.174Z,4.53
2019-02-12T06:11:58.169Z,7.33
2019-02-12T06:16:02.095Z,5.97
2019-02-12T06:20:06.171Z,4.90
2019-02-12T06:24:10.145Z,4.63
2019-02-12T06:28:14.230Z,6.37
2019-02-12T06:32:18.130Z,6.07
2019-02-12T06:36:22.108Z,3.00
2019-02-12T06:40:25.962Z,7.27
2019-02-12T06:44:30.030Z,3.13
2019-02-12T06:48:33.927Z,4.90
2019-02-12T06:52:38.009Z,3.03
2019-02-12T06:56:42.030Z,6.33
2019-02-12T07:00:46.078Z,4.13
2019-02-12T07:04:50.030Z,4.00
2019-02-12T07:08:56.661Z,6.13
2019-02-12T07:13:19.834Z,5.23
2019-02-12T07:17:34.297Z,8.07
2019-02-12T07:21:46.126Z,3.77
2019-02-12T07:26:00.850Z,3.90
2019-02-12T07:30:23.998Z,6.80
2019-02-12T07:34:32.986Z,6.63
2019-02-12T07:38:49.599Z,26.97
2019-02-12T07:42:58.846Z,34.70
2019-02-12T07:47:10.755Z,16.87
2019-02-12T07:51:19.889Z,11.50
2019-02-12T07:55:30.687Z,8.20
2019-02-12T07:59:38.055Z,8.47
2019-02-12T08:04:01.189Z,10.60
2019-02-12T08:08:24.511Z,4.97
2019-02-12T08:12:32.840Z,3.13
2019-02-12T08:16:56.193Z,4.33
2019-02-12T08:21:19.397Z,4.90
2019-02-12T08:25:42.663Z,3.67
2019-02-12T08:29:53.391Z,3.43
2019-02-12T08:34:05.203Z,5.00
2019-02-12T08:38:14.813Z,9.67
2019-02-12T08:42:22.385Z,11.10
2019-02-12T08:46:45.767Z,6.20
2019-02-12T08:50:53.202Z,8.83
2019-02-12T08:55:16.521Z,8.33
2019-02-12T08:59:26.805Z,12.27
2019-02-12T09:03:35.262Z,14.47
2019-02-12T09:07:44.790Z,15.27
2019-02-12T09:12:01.598Z,13.53
2019-02-12T09:16:13.744Z,11.03
2019-02-12T09:20:36.942Z,5.23
2019-02-12T09:24:52.337Z,7.27
2019-02-12T09:29:00.973Z,9.37
2019-02-12T09:33:08.605Z,6.17
2019-02-12T09:37:19.693Z,11.73
2019-02-12T09:41:27.546Z,11.07
2019-02-12T09:45:38.373Z,10.80
2019-02-12T09:50:01.582Z,11.63
2019-02-12T09:54:24.987Z,10.37
2019-02-12T09:58:48.207Z,8.60
2019-02-12T10:03:11.478Z,7.47
2019-02-12T10:07:34.819Z,6.73
2019-02-12T10:11:44.695Z,6.23
2019-02-12T10:16:09.739Z,10.63
2019-02-12T10:20:20.857Z,5.00
2019-02-12T10:24:44.163Z,6.90
2019-02-12T10:28:55.428Z,4.93
2019-02-12T10:32:59.431Z,5.97
2019-02-12T10:37:03.743Z,8.80
2019-02-12T10:41:07.738Z,3.73
2019-02-12T10:45:11.665Z,4.00
2019-02-12T10:49:15.578Z,4.07
2019-02-12T10:53:19.637Z,4.97
2019-02-12T10:57:23.586Z,4.30
2019-02-12T11:01:27.632Z,4.87
2019-02-12T11:05:31.567Z,6.53
2019-02-12T11:09:35.661Z,4.73
2019-02-12T11:13:39.639Z,4.90
2019-02-12T11:17:43.602Z,2.87
2019-02-12T11:21:47.514Z,3.20
2019-02-12T11:25:51.534Z,2.53
2019-02-12T11:29:55.533Z,2.70
2019-02-12T11:34:00.529Z,4.33
2019-02-12T11:38:04.586Z,6.70
2019-02-12T11:42:08.584Z,4.73
2019-02-12T11:46:12.516Z,4.70
2019-02-12T11:50:16.730Z,5.33
2019-02-12T11:54:20.735Z,7.10
2019-02-12T11:58:24.693Z,2.47
2019-02-12T12:02:32.963Z,8.60
2019-02-12T12:06:36.964Z,4.20
2019-02-12T12:10:41.287Z,5.00
2019-02-12T12:14:45.253Z,4.77
2019-02-12T12:18:49.254Z,5.13
2019-02-12T12:22:53.152Z,2.27
2019-02-12T12:26:57.308Z,4.63
2019-02-12T12:31:01.199Z,4.00
2019-02-12T12:35:05.626Z,5.00
2019-02-12T12:39:09.853Z,6.53
2019-02-12T12:43:15.917Z,5.43
2019-02-12T12:47:20.293Z,4.67
2019-02-12T12:51:24.224Z,8.47
2019-02-12T12:55:28.232Z,6.23
2019-02-12T12:59:32.242Z,6.53
2019-02-12T13:03:36.770Z,4.13
2019-02-12T13:07:40.657Z,5.73
2019-02-12T13:11:44.654Z,4.83
2019-02-12T13:15:48.577Z,8.27
2019-02-12T13:19:52.531Z,5.60
2019-02-12T13:23:58.482Z,6.77
2019-02-12T13:28:02.652Z,3.67
2019-02-12T13:32:06.568Z,4.53
2019-02-12T13:36:10.493Z,7.47
2019-02-12T13:40:14.409Z,2.50
2019-02-12T13:44:18.877Z,2.63
2019-02-12T13:48:22.817Z,2.93
2019-02-12T13:52:26.847Z,4.00
2019-02-12T13:56:30.884Z,2.73
2019-02-12T14:00:35.275Z,4.43
2019-02-12T14:04:39.509Z,5.07
2019-02-12T14:08:43.588Z,5.10
2019-02-12T14:12:47.521Z,1.93
2019-02-12T14:16:51.429Z,6.30
2019-02-12T14:20:55.605Z,4.10
2019-02-12T14:24:59.796Z,3.97
2019-02-12T14:29:03.754Z,5.57
2019-02-12T14:33:07.796Z,2.90
2019-02-12T14:37:11.863Z,4.30
2019-02-12T14:41:15.806Z,2.93
2019-02-12T14:45:19.745Z,4.50
2019-02-12T14:49:23.838Z,4.70
2019-02-12T14:53:27.890Z,5.40
2019-02-12T14:57:31.790Z,2.40
2019-02-12T15:01:35.716Z,2.83
2019-02-12T15:05:39.659Z,7.23
2019-02-12T15:09:43.867Z,3.40
2019-02-12T15:13:47.809Z,4.43
2019-02-12T15:17:51.737Z,2.53
2019-02-12T15:21:55.772Z,4.33
2019-02-12T15:25:59.804Z,3.10
2019-02-12T15:30:04.148Z,4.13
2019-02-12T15:34:08.025Z,3.27
2019-02-12T15:38:12.067Z,3.43
2019-02-12T15:42:16.060Z,2.87
2019-02-12T15:46:20.011Z,2.87
2019-02-12T15:50:23.956Z,2.70
2019-02-12T15:54:27.981Z,2.87
2019-02-12T15:58:32.002Z,4.13
2019-02-12T16:02:36.037Z,1.87
2019-02-12T16:06:40.300Z,2.10
2019-02-12T16:10:45.729Z,3.73
2019-02-12T16:14:49.655Z,2.70
2019-02-12T16:18:54.202Z,6.87
2019-02-12T16:22:58.259Z,2.87
2019-02-12T16:27:02.214Z,3.33
2019-02-12T16:31:06.269Z,3.97
2019-02-12T16:35:10.779Z,4.30
2019-02-12T16:39:14.755Z,4.73
2019-02-12T16:43:18.785Z,5.30
2019-02-12T16:47:22.824Z,4.77
2019-02-12T16:51:27.512Z,5.27
2019-02-12T16:55:31.708Z,6.57
2019-02-12T16:59:35.654Z,4.43
2019-02-12T17:03:39.741Z,5.70
2019-02-12T17:07:44.328Z,7.47
2019-02-12T17:11:48.415Z,6.10
2019-02-12T17:15:52.476Z,5.37
2019-02-12T17:19:56.541Z,4.23
2019-02-12T17:24:00.579Z,2.27
2019-02-12T17:28:04.535Z,5.13
2019-02-12T17:32:08.434Z,2.83
2019-02-12T17:36:12.527Z,2.63
2019-02-12T17:40:16.448Z,3.93
2019-02-12T17:44:20.571Z,5.27
2019-02-12T17:48:24.502Z,3.70
2019-02-12T17:52:28.394Z,2.90
2019-02-12T17:56:32.380Z,3.13
2019-02-12T18:00:40.419Z,2.73
2019-02-12T18:04:44.375Z,3.40
2019-02-12T18:08:48.295Z,2.87
2019-02-12T18:12:52.365Z,4.23
2019-02-12T18:16:56.454Z,6.40
2019-02-12T18:21:00.360Z,5.13
2019-02-12T18:25:04.883Z,7.47
2019-02-12T18:29:08.954Z,6.80
2019-02-12T18:33:13.054Z,6.73
2019-02-12T18:37:17.446Z,5.67
2019-02-12T18:41:21.406Z,6.07
2019-02-12T18:45:25.425Z,8.40
2019-02-12T18:49:29.411Z,6.13
2019-02-12T18:53:33.427Z,7.70
2019-02-12T18:57:37.449Z,5.80
2019-02-12T19:01:41.498Z,3.57
2019-02-12T19:05:45.467Z,5.23
2019-02-12T19:09:49.515Z,4.30
2019-02-12T19:13:53.499Z,4.37
2019-02-12T19:17:59.662Z,6.50
2019-02-12T19:22:03.751Z,6.43
2019-02-12T19:26:07.787Z,5.80
2019-02-12T19:30:15.931Z,5.93
2019-02-12T19:34:19.863Z,5.50
2019-02-12T19:38:23.751Z,5.37
2019-02-12T19:42:27.764Z,5.60
2019-02-12T19:46:31.979Z,8.03
2019-02-12T19:50:35.947Z,7.27
2019-02-12T19:54:39.902Z,7.90
2019-02-12T19:58:45.026Z,10.17
2019-02-12T20:02:49.184Z,41.80
2019-02-12T20:06:53.217Z,47.93
2019-02-12T20:10:57.398Z,189.00
2019-02-12T20:15:01.500Z,195.77
2019-02-12T20:19:05.564Z,369.53
2019-02-12T20:23:09.944Z,196.47
2019-02-12T20:27:13.965Z,122.70
2019-02-12T20:31:17.967Z,46.70
2019-02-12T20:35:24.657Z,35.73
2019-02-12T20:39:28.821Z,25.47
2019-02-12T20:43:32.737Z,19.33
2019-02-12T20:47:36.767Z,11.77
2019-02-12T20:51:40.781Z,11.73
2019-02-12T20:55:44.935Z,9.77
2019-02-12T20:59:48.864Z,7.60
2019-02-12T21:03:52.921Z,5.90
2019-02-12T21:07:56.994Z,6.13
2019-02-12T21:12:01.156Z,7.37
2019-02-12T21:16:05.493Z,4.63
2019-02-12T21:20:10.632Z,3.37
2019-02-12T21:24:14.959Z,8.63
2019-02-12T21:28:18.984Z,9.20
2019-02-12T21:32:23.942Z,5.80
2019-02-12T21:36:28.100Z,6.90
2019-02-12T21:40:32.015Z,14.50
2019-02-12T21:44:36.175Z,19.27
2019-02-12T21:48:40.145Z,16.17
2019-02-12T21:52:44.053Z,13.00
2019-02-12T21:56:47.974Z,11.60
2019-02-12T22:00:51.966Z,7.13
2019-02-12T22:04:55.934Z,6.20
2019-02-12T22:09:00.961Z,6.57
2019-02-12T22:13:06.691Z,5.03
2019-02-12T22:17:10.815Z,7.20
2019-02-12T22:21:14.772Z,6.97
2019-02-12T22:25:18.754Z,4.57
2019-02-12T22:29:22.657Z,5.13
2019-02-12T22:33:26.709Z,4.93
2019-02-12T22:37:30.641Z,5.37
2019-02-12T22:41:34.558Z,6.83
2019-02-12T22:45:38.546Z,7.47
2019-02-12T22:49:42.437Z,6.40
2019-02-12T22:53:46.358Z,4.93
2019-02-12T22:57:51.615Z,7.77
2019-02-12T23:01:56.757Z,6.23
2019-02-12T23:06:00.748Z,5.50
2019-02-12T23:10:04.996Z,6.50
2019-02-12T23:14:12.645Z,5.57
2019-02-12T23:18:16.635Z,7.00
2019-02-12T23:22:20.696Z,8.33
2019-02-12T23:26:24.783Z,6.23
2019-02-12T23:30:28.898Z,6.10
2019-02-12T23:34:32.984Z,5.83
2019-02-12T23:38:36.959Z,7.63
2019-02-12T23:42:41.115Z,4.77
2019-02-12T23:46:46.193Z,4.77
2019-02-12T23:50:50.158Z,6.90
2019-02-12T23:54:54.172Z,6.97
2019-02-12T23:58:58.253Z,5.40
